WMKC/KBR METAR and TAF weather

Enter ICAO airport designator
Station Type Date Time Source
WMKC METAR 2021/09/28 16:00 UTC NOAA

WMKC 281600Z 07007KT 020V170 2000 TSRA FEW007 FEW017CB SCT020 26/25 Q1010


Station Type Date Time Source
WMKC Decoded METAR 2021/09/28 16:00 UTC NOAA

Kota Bharu, Malaysia (WMKC) 06-10N 102-17E 5M
Sep 28, 2021 - 12:00 PM EDT / 2021.09.28 1600 UTC
Wind: from the ENE (070 degrees) at 8 MPH (7 KT) (direction variable):0
Visibility: 1 mile(s):0
Sky conditions: partly cloudy
Weather: rain with thunder; Cumulonimbus clouds observed
Temperature: 78 F (26 C)
Dew Point: 77 F (25 C)
Relative Humidity: 94%
Pressure (altimeter): 29.83 in. Hg (1010 hPa)
ob: WMKC 281600Z 07007KT 020V170 2000 TSRA FEW007 FEW017CB SCT020 26/25 Q1010
cycle: 16

Station Type Date Time Source
WMKC TAF 2021/09/28 18:00 UTC NOAA

TAF WMKC 281700Z 2818/2918 VRB03KT 9999 FEW017CB
TEMPO 2818/2822 6000 -TSRA FEW010 FEW017CB

Example: see airport list